sensor_id;sensor_type;location;lat;lon;timestamp;pressure;altitude;pressure_sealevel;temperature;humidity
61037;BME280;57313;47.040;15.498;2022-10-16T00:01:17;97209.22;;;9.31;100.00
61037;BME280;57313;47.040;15.498;2022-10-16T00:03:45;97204.09;;;9.29;100.00
61037;BME280;57313;47.040;15.498;2022-10-16T00:06:15;97201.78;;;9.25;100.00
61037;BME280;57313;47.040;15.498;2022-10-16T00:08:45;97203.59;;;9.23;100.00
61037;BME280;57313;47.040;15.498;2022-10-16T00:11:14;97205.19;;;9.25;100.00
61037;BME280;57313;47.040;15.498;2022-10-16T00:13:44;97213.72;;;9.27;100.00
61037;BME280;57313;47.040;15.498;2022-10-16T00:16:12;97196.50;;;9.26;100.00
61037;BME280;57313;47.040;15.498;2022-10-16T00:18:40;97202.50;;;9.27;100.00
61037;BME280;57313;47.040;15.498;2022-10-16T00:21:10;97196.56;;;9.25;100.00
61037;BME280;57313;47.040;15.498;2022-10-16T00:23:38;97195.53;;;9.27;100.00
61037;BME280;57313;47.040;15.498;2022-10-16T00:26:09;97200.75;;;9.27;100.00
61037;BME280;57313;47.040;15.498;2022-10-16T00:28:37;97207.72;;;9.27;100.00
61037;BME280;57313;47.040;15.498;2022-10-16T00:31:07;97209.38;;;9.28;100.00
61037;BME280;57313;47.040;15.498;2022-10-16T00:33:35;97217.28;;;9.26;100.00
61037;BME280;57313;47.040;15.498;2022-10-16T00:36:04;97219.09;;;9.24;100.00
61037;BME280;57313;47.040;15.498;2022-10-16T00:38:32;97211.31;;;9.24;100.00
61037;BME280;57313;47.040;15.498;2022-10-16T00:40:59;97219.88;;;9.26;100.00
61037;BME280;57313;47.040;15.498;2022-10-16T00:43:38;97220.53;;;9.30;100.00
61037;BME280;57313;47.040;15.498;2022-10-16T00:46:13;97210.03;;;9.31;100.00
61037;BME280;57313;47.040;15.498;2022-10-16T00:48:42;97225.47;;;9.34;100.00
61037;BME280;57313;47.040;15.498;2022-10-16T00:51:10;97224.56;;;9.36;100.00
61037;BME280;57313;47.040;15.498;2022-10-16T00:53:38;97237.28;;;9.40;100.00
61037;BME280;57313;47.040;15.498;2022-10-16T00:56:06;97219.09;;;9.40;100.00
61037;BME280;57313;47.040;15.498;2022-10-16T00:58:35;97225.13;;;9.41;100.00
61037;BME280;57313;47.040;15.498;2022-10-16T01:01:02;97232.75;;;9.44;100.00
61037;BME280;57313;47.040;15.498;2022-10-16T01:03:31;97228.28;;;9.46;100.00
61037;BME280;57313;47.040;15.498;2022-10-16T01:06:09;97228.19;;;9.47;100.00
61037;BME280;57313;47.040;15.498;2022-10-16T01:08:47;97230.78;;;9.47;100.00
61037;BME280;57313;47.040;15.498;2022-10-16T01:11:22;97227.38;;;9.47;100.00
61037;BME280;57313;47.040;15.498;2022-10-16T01:13:58;97229.03;;;9.48;100.00
61037;BME280;57313;47.040;15.498;2022-10-16T01:16:32;97225.69;;;9.46;100.00
61037;BME280;57313;47.040;15.498;2022-10-16T01:19:08;97225.75;;;9.44;100.00
61037;BME280;57313;47.040;15.498;2022-10-16T01:21:40;97237.75;;;9.47;100.00
61037;BME280;57313;47.040;15.498;2022-10-16T01:24:15;97220.31;;;9.49;100.00
61037;BME280;57313;47.040;15.498;2022-10-16T01:27:10;97219.38;;;9.50;100.00
61037;BME280;57313;47.040;15.498;2022-10-16T01:29:40;97208.25;;;9.48;100.00
61037;BME280;57313;47.040;15.498;2022-10-16T01:32:14;97218.75;;;9.46;100.00
61037;BME280;57313;47.040;15.498;2022-10-16T01:34:49;97214.38;;;9.47;100.00
61037;BME280;57313;47.040;15.498;2022-10-16T01:37:23;97220.47;;;9.46;100.00
61037;BME280;57313;47.040;15.498;2022-10-16T01:39:55;97225.75;;;9.44;100.00
61037;BME280;57313;47.040;15.498;2022-10-16T01:42:29;97221.69;;;9.40;100.00
61037;BME280;57313;47.040;15.498;2022-10-16T01:44:59;97228.72;;;9.38;100.00
61037;BME280;57313;47.040;15.498;2022-10-16T01:47:30;97238.63;;;9.31;100.00
61037;BME280;57313;47.040;15.498;2022-10-16T01:49:59;97229.31;;;9.27;100.00
61037;BME280;57313;47.040;15.498;2022-10-16T01:52:29;97237.28;;;9.24;100.00
61037;BME280;57313;47.040;15.498;2022-10-16T01:54:58;97219.09;;;9.24;100.00
61037;BME280;57313;47.040;15.498;2022-10-16T01:57:30;97230.34;;;9.25;100.00
61037;BME280;57313;47.040;15.498;2022-10-16T02:00:02;97220.22;;;9.20;100.00
61037;BME280;57313;47.040;15.498;2022-10-16T02:02:30;97217.63;;;9.20;100.00
61037;BME280;57313;47.040;15.498;2022-10-16T02:05:03;97216.59;;;9.23;100.00
61037;BME280;57313;47.040;15.498;2022-10-16T02:07:32;97215.59;;;9.25;100.00
61037;BME280;57313;47.040;15.498;2022-10-16T02:10:00;97212.06;;;9.26;100.00
61037;BME280;57313;47.040;15.498;2022-10-16T02:12:33;97208.53;;;9.27;100.00
61037;BME280;57313;47.040;15.498;2022-10-16T02:15:03;97217.09;;;9.29;100.00
61037;BME280;57313;47.040;15.498;2022-10-16T02:17:32;97208.44;;;9.29;100.00
61037;BME280;57313;47.040;15.498;2022-10-16T02:19:59;97207.44;;;9.31;100.00
61037;BME280;57313;47.040;15.498;2022-10-16T02:22:29;97212.06;;;9.26;100.00
61037;BME280;57313;47.040;15.498;2022-10-16T02:25:03;97219.88;;;9.26;100.00
61037;BME280;57313;47.040;15.498;2022-10-16T02:27:39;97217.38;;;9.25;100.00
61037;BME280;57313;47.040;15.498;2022-10-16T02:30:13;97238.16;;;9.25;100.00
61037;BME280;57313;47.040;15.498;2022-10-16T02:32:43;97231.28;;;9.24;100.00
61037;BME280;57313;47.040;15.498;2022-10-16T02:35:12;97233.13;;;9.22;100.00
61037;BME280;57313;47.040;15.498;2022-10-16T02:37:42;97242.84;;;9.18;100.00
61037;BME280;57313;47.040;15.498;2022-10-16T02:40:11;97239.31;;;9.19;100.00
61037;BME280;57313;47.040;15.498;2022-10-16T02:42:40;97244.34;;;9.22;100.00
61037;BME280;57313;47.040;15.498;2022-10-16T02:45:09;97230.63;;;9.20;100.00
61037;BME280;57313;47.040;15.498;2022-10-16T02:47:37;97240.91;;;9.22;100.00
61037;BME280;57313;47.040;15.498;2022-10-16T02:50:06;97247.59;;;9.26;100.00
61037;BME280;57313;47.040;15.498;2022-10-16T02:52:34;97249.38;;;9.25;100.00
61037;BME280;57313;47.040;15.498;2022-10-16T02:55:02;97249.19;;;9.28;100.00
61037;BME280;57313;47.040;15.498;2022-10-16T02:57:30;97245.69;;;9.29;100.00
61037;BME280;57313;47.040;15.498;2022-10-16T02:59:59;97249.69;;;9.35;100.00
61037;BME280;57313;47.040;15.498;2022-10-16T03:02:27;97246.25;;;9.34;100.00
61037;BME280;57313;47.040;15.498;2022-10-16T03:04:55;97249.50;;;9.38;100.00
61037;BME280;57313;47.040;15.498;2022-10-16T03:07:23;97253.53;;;9.44;100.00
61037;BME280;57313;47.040;15.498;2022-10-16T03:09:51;97258.56;;;9.47;100.00
61037;BME280;57313;47.040;15.498;2022-10-16T03:12:18;97262.75;;;9.49;100.00
61037;BME280;57313;47.040;15.498;2022-10-16T03:14:46;97273.97;;;9.50;100.00
61037;BME280;57313;47.040;15.498;2022-10-16T03:17:16;97267.00;;;9.50;100.00
61037;BME280;57313;47.040;15.498;2022-10-16T03:19:44;97265.25;;;9.51;100.00
61037;BME280;57313;47.040;15.498;2022-10-16T03:22:11;97261.81;;;9.50;100.00
61037;BME280;57313;47.040;15.498;2022-10-16T03:24:39;97256.53;;;9.52;100.00
61037;BME280;57313;47.040;15.498;2022-10-16T03:27:06;97254.78;;;9.52;100.00
61037;BME280;57313;47.040;15.498;2022-10-16T03:29:34;97256.59;;;9.50;100.00
61037;BME280;57313;47.040;15.498;2022-10-16T03:32:02;97257.38;;;9.52;100.00
61037;BME280;57313;47.040;15.498;2022-10-16T03:34:33;97254.97;;;9.49;100.00
61037;BME280;57313;47.040;15.498;2022-10-16T03:37:00;97254.00;;;9.50;100.00
61037;BME280;57313;47.040;15.498;2022-10-16T03:39:27;97241.28;;;9.46;100.00
61037;BME280;57313;47.040;15.498;2022-10-16T03:41:55;97245.00;;;9.42;100.00
61037;BME280;57313;47.040;15.498;2022-10-16T03:44:23;97247.00;;;9.37;100.00
61037;BME280;57313;47.040;15.498;2022-10-16T03:46:50;97258.34;;;9.36;100.00
61037;BME280;57313;47.040;15.498;2022-10-16T03:49:18;97263.38;;;9.39;100.00
61037;BME280;57313;47.040;15.498;2022-10-16T03:51:47;97259.81;;;9.40;100.00
61037;BME280;57313;47.040;15.498;2022-10-16T03:54:15;97275.25;;;9.43;100.00
61037;BME280;57313;47.040;15.498;2022-10-16T03:56:43;97275.16;;;9.44;100.00
61037;BME280;57313;47.040;15.498;2022-10-16T03:59:10;97279.69;;;9.41;100.00
61037;BME280;57313;47.040;15.498;2022-10-16T04:01:38;97281.47;;;9.40;100.00
61037;BME280;57313;47.040;15.498;2022-10-16T04:04:05;97269.56;;;9.36;100.00
61037;BME280;57313;47.040;15.498;2022-10-16T04:06:33;97284.25;;;9.37;100.00
61037;BME280;57313;47.040;15.498;2022-10-16T04:09:02;97279.22;;;9.34;100.00
61037;BME280;57313;47.040;15.498;2022-10-16T04:11:29;97279.22;;;9.34;100.00
61037;BME280;57313;47.040;15.498;2022-10-16T04:13:57;97284.50;;;9.32;100.00
61037;BME280;57313;47.040;15.498;2022-10-16T04:16:25;97269.81;;;9.31;100.00
61037;BME280;57313;47.040;15.498;2022-10-16T04:18:52;97280.13;;;9.33;100.00
61037;BME280;57313;47.040;15.498;2022-10-16T04:21:20;97278.44;;;9.32;100.00
61037;BME280;57313;47.040;15.498;2022-10-16T04:23:48;97279.38;;;9.31;100.00
61037;BME280;57313;47.040;15.498;2022-10-16T04:26:17;97275.00;;;9.31;100.00
61037;BME280;57313;47.040;15.498;2022-10-16T04:28:45;97284.31;;;9.36;100.00
61037;BME280;57313;47.040;15.498;2022-10-16T04:31:12;97275.75;;;9.33;100.00
61037;BME280;57313;47.040;15.498;2022-10-16T04:33:42;97272.91;;;9.38;100.00
61037;BME280;57313;47.040;15.498;2022-10-16T04:36:10;97263.44;;;9.37;100.00
61037;BME280;57313;47.040;15.498;2022-10-16T04:38:38;97278.19;;;9.37;100.00
61037;BME280;57313;47.040;15.498;2022-10-16T04:41:06;97279.13;;;9.36;100.00
61037;BME280;57313;47.040;15.498;2022-10-16T04:43:36;97285.16;;;9.36;100.00
61037;BME280;57313;47.040;15.498;2022-10-16T04:46:04;97282.56;;;9.36;100.00
61037;BME280;57313;47.040;15.498;2022-10-16T04:48:31;97285.91;;;9.38;100.00
61037;BME280;57313;47.040;15.498;2022-10-16T04:50:59;97286.84;;;9.37;100.00
61037;BME280;57313;47.040;15.498;2022-10-16T04:53:26;97293.03;;;9.34;100.00
61037;BME280;57313;47.040;15.498;2022-10-16T04:55:54;97300.66;;;9.38;100.00
61037;BME280;57313;47.040;15.498;2022-10-16T04:58:22;97300.75;;;9.36;100.00
61037;BME280;57313;47.040;15.498;2022-10-16T05:00:51;97300.09;;;9.32;100.00
61037;BME280;57313;47.040;15.498;2022-10-16T05:03:19;97299.50;;;9.27;100.00
61037;BME280;57313;47.040;15.498;2022-10-16T05:05:46;97307.38;;;9.26;100.00
61037;BME280;57313;47.040;15.498;2022-10-16T05:08:15;97308.41;;;9.23;100.00
61037;BME280;57313;47.040;15.498;2022-10-16T05:10:44;97315.34;;;9.23;100.00
61037;BME280;57313;47.040;15.498;2022-10-16T05:13:13;97308.56;;;9.20;100.00
61037;BME280;57313;47.040;15.498;2022-10-16T05:15:40;97318.97;;;9.20;100.00
61037;BME280;57313;47.040;15.498;2022-10-16T05:18:10;97320.78;;;9.18;100.00
61037;BME280;57313;47.040;15.498;2022-10-16T05:20:38;97314.84;;;9.16;100.00
61037;BME280;57313;47.040;15.498;2022-10-16T05:23:05;97312.41;;;9.13;100.00
61037;BME280;57313;47.040;15.498;2022-10-16T05:25:33;97321.13;;;9.12;100.00
61037;BME280;57313;47.040;15.498;2022-10-16T05:28:01;97322.81;;;9.13;100.00
61037;BME280;57313;47.040;15.498;2022-10-16T05:30:28;97330.75;;;9.10;100.00
61037;BME280;57313;47.040;15.498;2022-10-16T05:32:56;97335.06;;;9.11;100.00
61037;BME280;57313;47.040;15.498;2022-10-16T05:35:25;97343.75;;;9.10;100.00
61037;BME280;57313;47.040;15.498;2022-10-16T05:37:52;97343.00;;;9.08;100.00
61037;BME280;57313;47.040;15.498;2022-10-16T05:40:20;97340.41;;;9.08;100.00
61037;BME280;57313;47.040;15.498;2022-10-16T05:42:47;97341.31;;;9.07;100.00
61037;BME280;57313;47.040;15.498;2022-10-16T05:45:15;97342.06;;;9.09;100.00
61037;BME280;57313;47.040;15.498;2022-10-16T05:47:42;97343.59;;;9.13;100.00
61037;BME280;57313;47.040;15.498;2022-10-16T05:50:09;97331.44;;;9.13;100.00
61037;BME280;57313;47.040;15.498;2022-10-16T05:52:38;97340.00;;;9.15;100.00
61037;BME280;57313;47.040;15.498;2022-10-16T05:55:06;97331.25;;;9.16;100.00
61037;BME280;57313;47.040;15.498;2022-10-16T05:57:33;97342.34;;;9.20;100.00
61037;BME280;57313;47.040;15.498;2022-10-16T06:00:00;97345.53;;;9.25;100.00
61037;BME280;57313;47.040;15.498;2022-10-16T06:02:27;97355.84;;;9.27;100.00
61037;BME280;57313;47.040;15.498;2022-10-16T06:04:55;97365.47;;;9.25;100.00
61037;BME280;57313;47.040;15.498;2022-10-16T06:07:23;97371.66;;;9.22;100.00
61037;BME280;57313;47.040;15.498;2022-10-16T06:09:53;97378.66;;;9.22;100.00
61037;BME280;57313;47.040;15.498;2022-10-16T06:12:20;97375.34;;;9.18;100.00
61037;BME280;57313;47.040;15.498;2022-10-16T06:14:48;97388.19;;;9.21;100.00
61037;BME280;57313;47.040;15.498;2022-10-16T06:17:15;97389.19;;;9.19;100.00
61037;BME280;57313;47.040;15.498;2022-10-16T06:19:42;97405.78;;;9.16;100.00
61037;BME280;57313;47.040;15.498;2022-10-16T06:22:09;97404.19;;;9.13;100.00
61037;BME280;57313;47.040;15.498;2022-10-16T06:24:36;97402.44;;;9.14;100.00
61037;BME280;57313;47.040;15.498;2022-10-16T06:27:05;97404.09;;;9.15;100.00
61037;BME280;57313;47.040;15.498;2022-10-16T06:29:33;97405.63;;;9.19;100.00
61037;BME280;57313;47.040;15.498;2022-10-16T06:32:00;97419.97;;;9.26;100.00
61037;BME280;57313;47.040;15.498;2022-10-16T06:34:27;97421.72;;;9.26;100.00
61037;BME280;57313;47.040;15.498;2022-10-16T06:36:54;97422.50;;;9.28;100.00
61037;BME280;57313;47.040;15.498;2022-10-16T06:39:22;97416.09;;;9.33;100.00
61037;BME280;57313;47.040;15.498;2022-10-16T06:41:49;97413.34;;;9.37;100.00
61037;BME280;57313;47.040;15.498;2022-10-16T06:44:19;97421.91;;;9.39;100.00
61037;BME280;57313;47.040;15.498;2022-10-16T06:46:46;97418.13;;;9.44;100.00
61037;BME280;57313;47.040;15.498;2022-10-16T06:49:13;97427.44;;;9.48;100.00
61037;BME280;57313;47.040;15.498;2022-10-16T06:51:41;97435.66;;;9.57;100.00
61037;BME280;57313;47.040;15.498;2022-10-16T06:54:09;97442.53;;;9.58;100.00
61037;BME280;57313;47.040;15.498;2022-10-16T06:56:36;97433.84;;;9.59;100.00
61037;BME280;57313;47.040;15.498;2022-10-16T06:59:04;97441.22;;;9.66;100.00
61037;BME280;57313;47.040;15.498;2022-10-16T07:01:34;97440.97;;;9.71;100.00
61037;BME280;57313;47.040;15.498;2022-10-16T07:04:01;97442.44;;;9.75;100.00
61037;BME280;57313;47.040;15.498;2022-10-16T07:06:31;97442.28;;;9.78;100.00
61037;BME280;57313;47.040;15.498;2022-10-16T07:09:02;97447.41;;;9.80;100.00
61037;BME280;57313;47.040;15.498;2022-10-16T07:11:32;97441.94;;;9.84;100.00
61037;BME280;57313;47.040;15.498;2022-10-16T07:14:00;97437.47;;;9.86;100.00
61037;BME280;57313;47.040;15.498;2022-10-16T07:16:28;97449.50;;;9.89;100.00
61037;BME280;57313;47.040;15.498;2022-10-16T07:18:59;97444.13;;;9.92;100.00
61037;BME280;57313;47.040;15.498;2022-10-16T07:21:29;97445.63;;;9.96;100.00
61037;BME280;57313;47.040;15.498;2022-10-16T07:23:58;97442.78;;;10.01;100.00
61037;BME280;57313;47.040;15.498;2022-10-16T07:26:27;97445.88;;;10.07;100.00
61037;BME280;57313;47.040;15.498;2022-10-16T07:28:55;97453.31;;;10.14;100.00
61037;BME280;57313;47.040;15.498;2022-10-16T07:31:23;97450.56;;;10.17;100.00
61037;BME280;57313;47.040;15.498;2022-10-16T07:33:51;97456.41;;;10.20;100.00
61037;BME280;57313;47.040;15.498;2022-10-16T07:36:21;97459.53;;;10.27;100.00
61037;BME280;57313;47.040;15.498;2022-10-16T07:38:48;97459.03;;;10.36;100.00
61037;BME280;57313;47.040;15.498;2022-10-16T07:41:21;97456.91;;;10.43;100.00
61037;BME280;57313;47.040;15.498;2022-10-16T07:43:49;97458.97;;;10.52;100.00
61037;BME280;57313;47.040;15.498;2022-10-16T07:46:18;97457.94;;;10.55;100.00
61037;BME280;57313;47.040;15.498;2022-10-16T07:48:46;97469.59;;;10.64;100.00
61037;BME280;57313;47.040;15.498;2022-10-16T07:51:15;97466.56;;;10.71;100.00
61037;BME280;57313;47.040;15.498;2022-10-16T07:53:45;97449.91;;;10.74;100.00
61037;BME280;57313;47.040;15.498;2022-10-16T07:56:13;97452.34;;;10.77;100.00
61037;BME280;57313;47.040;15.498;2022-10-16T07:58:41;97449.47;;;10.82;100.00
61037;BME280;57313;47.040;15.498;2022-10-16T08:01:11;97452.44;;;10.90;100.00
61037;BME280;57313;47.040;15.498;2022-10-16T08:03:41;97458.03;;;10.98;100.00
61037;BME280;57313;47.040;15.498;2022-10-16T08:06:09;97454.31;;;11.02;100.00
61037;BME280;57313;47.040;15.498;2022-10-16T08:08:37;97465.09;;;11.10;100.00
61037;BME280;57313;47.040;15.498;2022-10-16T08:11:07;97461.50;;;11.13;100.00
61037;BME280;57313;47.040;15.498;2022-10-16T08:13:34;97464.81;;;11.15;100.00
61037;BME280;57313;47.040;15.498;2022-10-16T08:16:02;97475.75;;;11.22;100.00
61037;BME280;57313;47.040;15.498;2022-10-16T08:18:30;97469.31;;;11.27;100.00
61037;BME280;57313;47.040;15.498;2022-10-16T08:20:58;97471.25;;;11.38;100.00
61037;BME280;57313;47.040;15.498;2022-10-16T08:23:27;97467.34;;;11.45;100.00
61037;BME280;57313;47.040;15.498;2022-10-16T08:25:55;97470.69;;;11.47;100.00
61037;BME280;57313;47.040;15.498;2022-10-16T08:28:26;97474.31;;;11.45;100.00
61037;BME280;57313;47.040;15.498;2022-10-16T08:30:53;97477.00;;;11.43;100.00
61037;BME280;57313;47.040;15.498;2022-10-16T08:33:21;97479.91;;;11.53;100.00
61037;BME280;57313;47.040;15.498;2022-10-16T08:35:51;97472.25;;;11.64;100.00
61037;BME280;57313;47.040;15.498;2022-10-16T08:38:19;97477.91;;;11.71;100.00
61037;BME280;57313;47.040;15.498;2022-10-16T08:40:47;97484.34;;;11.80;100.00
61037;BME280;57313;47.040;15.498;2022-10-16T08:43:35;97494.31;;;11.88;100.00
61037;BME280;57313;47.040;15.498;2022-10-16T08:46:20;97490.31;;;11.96;100.00
61037;BME280;57313;47.040;15.498;2022-10-16T08:48:54;97483.13;;;12.00;100.00
61037;BME280;57313;47.040;15.498;2022-10-16T08:51:24;97485.44;;;12.05;100.00
61037;BME280;57313;47.040;15.498;2022-10-16T08:53:56;97487.66;;;12.11;100.00
61037;BME280;57313;47.040;15.498;2022-10-16T08:56:25;97488.91;;;12.18;100.00
61037;BME280;57313;47.040;15.498;2022-10-16T08:58:54;97490.84;;;12.29;100.00
61037;BME280;57313;47.040;15.498;2022-10-16T09:01:38;97489.63;;;12.34;100.00
61037;BME280;57313;47.040;15.498;2022-10-16T09:04:35;97493.41;;;12.43;100.00
61037;BME280;57313;47.040;15.498;2022-10-16T09:07:12;97496.56;;;12.48;100.00
61037;BME280;57313;47.040;15.498;2022-10-16T09:09:54;97491.13;;;12.51;100.00
61037;BME280;57313;47.040;15.498;2022-10-16T09:12:30;97491.03;;;12.53;100.00
61037;BME280;57313;47.040;15.498;2022-10-16T09:15:11;97489.78;;;12.59;100.00
61037;BME280;57313;47.040;15.498;2022-10-16T09:17:48;97479.97;;;12.62;100.00
61037;BME280;57313;47.040;15.498;2022-10-16T09:20:24;97485.72;;;12.67;100.00
61037;BME280;57313;47.040;15.498;2022-10-16T09:23:07;97488.88;;;12.72;100.00
61037;BME280;57313;47.040;15.498;2022-10-16T09:25:39;97492.84;;;12.78;100.00
61037;BME280;57313;47.040;15.498;2022-10-16T09:28:08;97487.94;;;12.86;100.00
61037;BME280;57313;47.040;15.498;2022-10-16T09:30:38;97482.50;;;12.89;100.00
61037;BME280;57313;47.040;15.498;2022-10-16T09:33:06;97493.50;;;12.95;100.00
61037;BME280;57313;47.040;15.498;2022-10-16T09:35:38;97485.25;;;13.01;100.00
61037;BME280;57313;47.040;15.498;2022-10-16T09:38:06;97497.06;;;13.06;100.00
61037;BME280;57313;47.040;15.498;2022-10-16T09:40:36;97492.88;;;13.17;100.00
61037;BME280;57313;47.040;15.498;2022-10-16T09:43:16;97503.66;;;13.25;100.00
61037;BME280;57313;47.040;15.498;2022-10-16T09:45:56;97498.69;;;13.35;100.00
61037;BME280;57313;47.040;15.498;2022-10-16T09:48:26;97492.91;;;13.42;100.00
61037;BME280;57313;47.040;15.498;2022-10-16T09:50:56;97500.03;;;13.53;100.00
61037;BME280;57313;47.040;15.498;2022-10-16T09:53:26;97491.00;;;13.57;100.00
61037;BME280;57313;47.040;15.498;2022-10-16T09:56:05;97491.28;;;13.65;100.00
61037;BME280;57313;47.040;15.498;2022-10-16T09:58:42;97489.19;;;13.71;100.00
61037;BME280;57313;47.040;15.498;2022-10-16T10:01:15;97496.19;;;13.83;100.00
61037;BME280;57313;47.040;15.498;2022-10-16T10:03:44;97485.56;;;13.97;100.00
61037;BME280;57313;47.040;15.498;2022-10-16T10:06:18;97486.25;;;14.12;100.00
61037;BME280;57313;47.040;15.498;2022-10-16T10:08:54;97485.47;;;14.23;100.00
61037;BME280;57313;47.040;15.498;2022-10-16T10:11:37;97484.28;;;14.27;100.00
61037;BME280;57313;47.040;15.498;2022-10-16T10:14:06;97482.69;;;14.38;100.00
61037;BME280;57313;47.040;15.498;2022-10-16T10:16:35;97488.28;;;14.44;100.00
61037;BME280;57313;47.040;15.498;2022-10-16T10:19:03;97490.34;;;14.52;100.00
61037;BME280;57313;47.040;15.498;2022-10-16T10:21:32;97490.63;;;14.60;100.00
61037;BME280;57313;47.040;15.498;2022-10-16T10:24:01;97487.56;;;14.66;100.00
61037;BME280;57313;47.040;15.498;2022-10-16T10:26:29;97482.09;;;14.69;100.00
61037;BME280;57313;47.040;15.498;2022-10-16T10:29:11;97489.84;;;14.71;100.00
61037;BME280;57313;47.040;15.498;2022-10-16T10:31:45;97473.19;;;14.72;100.00
61037;BME280;57313;47.040;15.498;2022-10-16T10:34:33;97475.09;;;14.81;100.00
61037;BME280;57313;47.040;15.498;2022-10-16T10:37:09;97472.72;;;14.89;100.00
61037;BME280;57313;47.040;15.498;2022-10-16T10:39:45;97465.72;;;15.01;100.00
61037;BME280;57313;47.040;15.498;2022-10-16T10:42:24;97469.66;;;15.07;100.00
61037;BME280;57313;47.040;15.498;2022-10-16T10:45:24;97462.19;;;15.14;100.00
61037;BME280;57313;47.040;15.498;2022-10-16T10:48:22;97463.63;;;15.29;100.00
61037;BME280;57313;47.040;15.498;2022-10-16T10:51:05;97456.34;;;15.33;100.00
61037;BME280;57313;47.040;15.498;2022-10-16T10:53:38;97462.91;;;15.38;100.00
61037;BME280;57313;47.040;15.498;2022-10-16T10:56:22;97464.69;;;15.49;100.00
61037;BME280;57313;47.040;15.498;2022-10-16T10:59:18;97459.19;;;15.64;100.00
61037;BME280;57313;47.040;15.498;2022-10-16T11:01:55;97460.63;;;15.68;100.00
61037;BME280;57313;47.040;15.498;2022-10-16T11:04:38;97463.97;;;15.81;100.00
61037;BME280;57313;47.040;15.498;2022-10-16T11:07:11;97463.69;;;15.95;100.00
61037;BME280;57313;47.040;15.498;2022-10-16T11:09:43;97452.00;;;16.00;100.00
61037;BME280;57313;47.040;15.498;2022-10-16T11:12:17;97452.44;;;16.05;100.00
61037;BME280;57313;47.040;15.498;2022-10-16T11:14:48;97454.94;;;16.18;100.00
61037;BME280;57313;47.040;15.498;2022-10-16T11:17:21;97455.63;;;16.20;100.00
61037;BME280;57313;47.040;15.498;2022-10-16T11:19:54;97457.50;;;16.29;100.00
61037;BME280;57313;47.040;15.498;2022-10-16T11:22:29;97452.06;;;16.42;100.00
61037;BME280;57313;47.040;15.498;2022-10-16T11:25:04;97446.06;;;16.51;100.00
61037;BME280;57313;47.040;15.498;2022-10-16T11:27:42;97444.72;;;16.57;100.00
61037;BME280;57313;47.040;15.498;2022-10-16T11:30:15;97443.25;;;16.64;100.00
61037;BME280;57313;47.040;15.498;2022-10-16T11:32:52;97440.94;;;16.71;100.00
61037;BME280;57313;47.040;15.498;2022-10-16T11:35:29;97449.97;;;16.78;100.00
61037;BME280;57313;47.040;15.498;2022-10-16T11:38:02;97450.22;;;16.86;100.00
61037;BME280;57313;47.040;15.498;2022-10-16T11:40:32;97440.13;;;16.91;100.00
61037;BME280;57313;47.040;15.498;2022-10-16T11:43:08;97439.63;;;16.97;100.00
61037;BME280;57313;47.040;15.498;2022-10-16T11:45:41;97442.81;;;17.01;100.00
61037;BME280;57313;47.040;15.498;2022-10-16T11:48:17;97444.78;;;17.09;100.00
61037;BME280;57313;47.040;15.498;2022-10-16T11:50:53;97435.28;;;17.17;100.00
61037;BME280;57313;47.040;15.498;2022-10-16T11:53:35;97439.22;;;17.23;100.00
61037;BME280;57313;47.040;15.498;2022-10-16T11:56:06;97448.22;;;17.30;100.00
61037;BME280;57313;47.040;15.498;2022-10-16T11:58:39;97451.53;;;17.32;100.00
61037;BME280;57313;47.040;15.498;2022-10-16T12:01:17;97439.09;;;17.34;100.00
61037;BME280;57313;47.040;15.498;2022-10-16T12:03:51;97438.00;;;17.37;100.00
61037;BME280;57313;47.040;15.498;2022-10-16T12:06:31;97434.97;;;17.41;100.00
61037;BME280;57313;47.040;15.498;2022-10-16T12:09:01;97439.81;;;17.46;100.00
61037;BME280;57313;47.040;15.498;2022-10-16T12:11:36;97436.41;;;17.55;100.00
61037;BME280;57313;47.040;15.498;2022-10-16T12:14:20;97436.47;;;17.75;100.00
61037;BME280;57313;47.040;15.498;2022-10-16T12:16:53;97429.97;;;17.79;100.00
61037;BME280;57313;47.040;15.498;2022-10-16T12:19:21;97434.97;;;17.82;100.00
61037;BME280;57313;47.040;15.498;2022-10-16T12:21:52;97433.97;;;17.83;100.00
61037;BME280;57313;47.040;15.498;2022-10-16T12:24:34;97438.00;;;17.77;100.00
61037;BME280;57313;47.040;15.498;2022-10-16T12:27:01;97438.00;;;17.77;100.00
61037;BME280;57313;47.040;15.498;2022-10-16T12:29:36;97430.38;;;17.84;100.00
61037;BME280;57313;47.040;15.498;2022-10-16T12:32:22;97429.28;;;17.87;100.00
61037;BME280;57313;47.040;15.498;2022-10-16T12:35:20;97441.09;;;17.92;100.00
61037;BME280;57313;47.040;15.498;2022-10-16T12:37:51;97432.78;;;17.97;100.00
61037;BME280;57313;47.040;15.498;2022-10-16T12:40:26;97437.25;;;18.06;100.00
61037;BME280;57313;47.040;15.498;2022-10-16T12:42:54;97432.09;;;18.15;100.00
61037;BME280;57313;47.040;15.498;2022-10-16T12:45:28;97433.22;;;18.22;100.00
61037;BME280;57313;47.040;15.498;2022-10-16T12:47:56;97445.72;;;18.29;100.00
61037;BME280;57313;47.040;15.498;2022-10-16T12:50:26;97451.53;;;18.33;100.00
61037;BME280;57313;47.040;15.498;2022-10-16T12:52:56;97442.69;;;18.34;100.00
61037;BME280;57313;47.040;15.498;2022-10-16T12:55:24;97443.94;;;18.40;94.70
61037;BME280;57313;47.040;15.498;2022-10-16T12:58:07;97437.09;;;18.47;97.81
61037;BME280;57313;47.040;15.498;2022-10-16T13:00:44;97441.16;;;18.51;95.69
61037;BME280;57313;47.040;15.498;2022-10-16T13:03:48;97438.50;;;18.51;94.13
61037;BME280;57313;47.040;15.498;2022-10-16T13:06:30;97443.66;;;18.53;91.13